Time;durP1;ratioP1;P1;durP2;ratioP2;P2;SDS_P1;SDS_P2;PMS_P1;PMS_P2;Temp;Humidity;BMP_temperature;BMP_pressure;BME280_temperature;BME280_humidity;BME280_pressure;Samples;Min_cycle;Max_cycle;Signal;HPM_P1;HPM_P2
2022/11/01 00:01:32;;;;;;;13.30;7.30;;;;;;;13.22;100.00;100825.56;5094698;28;20488;-73
2022/11/01 00:03:57;;;;;;;15.23;7.13;;;;;;;13.24;100.00;100823.75;5094327;28;20032;-73
2022/11/01 00:06:23;;;;;;;15.88;8.05;;;;;;;13.31;100.00;100827.91;5093287;28;20035;-73
2022/11/01 00:08:48;;;;;;;16.25;7.63;;;;;;;13.41;100.00;100825.81;5095449;28;20024;-73
2022/11/01 00:11:16;;;;;;;17.77;7.30;;;;;;;13.56;100.00;100817.41;5093506;28;20031;-73
2022/11/01 00:13:44;;;;;;;15.90;7.15;;;;;;;13.72;100.00;100815.09;5094984;28;20028;-73
2022/11/01 00:16:09;;;;;;;18.08;6.72;;;;;;;13.78;100.00;100825.34;5094529;28;20024;-73
2022/11/01 00:18:35;;;;;;;14.10;6.88;;;;;;;13.84;100.00;100817.25;5093785;28;20387;-73
2022/11/01 00:21:00;;;;;;;14.90;6.38;;;;;;;13.95;100.00;100814.22;5094609;28;20028;-73
2022/11/01 00:23:25;;;;;;;12.38;6.55;;;;;;;13.95;100.00;100803.75;5094446;28;20095;-72
2022/11/01 00:25:50;;;;;;;10.88;5.88;;;;;;;14.14;100.00;100817.00;5094608;28;20386;-73
2022/11/01 00:28:16;;;;;;;12.15;6.03;;;;;;;14.22;100.00;100809.69;5094211;28;20020;-73
2022/11/01 00:30:41;;;;;;;16.20;6.30;;;;;;;14.23;100.00;100785.19;5092403;28;20567;-73
2022/11/01 00:33:07;;;;;;;14.20;6.00;;;;;;;14.27;100.00;100798.09;5091283;28;20032;-73
2022/11/01 00:35:35;;;;;;;14.30;7.25;;;;;;;14.34;100.00;100806.59;5092803;28;20103;-73
2022/11/01 00:38:01;;;;;;;11.85;6.07;;;;;;;14.40;100.00;100805.50;5093731;28;20085;-73
2022/11/01 00:40:26;;;;;;;14.73;6.28;;;;;;;14.40;100.00;100810.75;5092228;28;20016;-72
2022/11/01 00:42:52;;;;;;;8.57;5.85;;;;;;;14.40;100.00;100808.97;5092021;28;20024;-73
2022/11/01 00:45:17;;;;;;;13.32;6.05;;;;;;;14.39;100.00;100795.94;5092617;28;20479;-73
2022/11/01 00:47:45;;;;;;;12.90;5.82;;;;;;;14.38;100.00;100799.44;5092929;28;20037;-72
2022/11/01 00:50:10;;;;;;;15.13;6.00;;;;;;;14.44;100.00;100801.81;5089178;28;20028;-73
2022/11/01 00:52:36;;;;;;;12.45;6.13;;;;;;;14.51;100.00;100793.66;5091514;28;20028;-73
2022/11/01 00:55:01;;;;;;;11.93;6.15;;;;;;;14.47;100.00;100793.84;5092453;28;20012;-72
2022/11/01 00:57:26;;;;;;;11.98;5.38;;;;;;;14.50;100.00;100801.59;5091333;28;20036;-72
2022/11/01 00:59:51;;;;;;;12.40;5.28;;;;;;;14.47;100.00;100792.06;5091093;28;20036;-73
2022/11/01 01:02:17;;;;;;;13.82;5.93;;;;;;;14.39;100.00;100790.69;5090257;28;20034;-73
2022/11/01 01:04:42;;;;;;;11.55;5.95;;;;;;;14.37;100.00;100787.25;5091894;28;20031;-73
2022/11/01 01:07:08;;;;;;;11.15;5.30;;;;;;;14.37;100.00;100792.50;5091076;28;20088;-73
2022/11/01 01:09:34;;;;;;;13.27;6.07;;;;;;;14.29;100.00;100785.81;5092323;28;20107;-73
2022/11/01 01:12:00;;;;;;;11.20;5.43;;;;;;;14.25;100.00;100762.38;5093277;28;20593;-73
2022/11/01 01:14:25;;;;;;;15.20;6.15;;;;;;;14.43;100.00;100771.28;5090886;28;20024;-73
2022/11/01 01:16:51;;;;;;;11.93;5.90;;;;;;;14.41;100.00;100780.97;5091273;28;20047;-73
2022/11/01 01:19:16;;;;;;;9.77;5.88;;;;;;;14.43;100.00;100790.47;5092526;28;20460;-73
2022/11/01 01:21:41;;;;;;;9.45;6.13;;;;;;;14.48;100.00;100783.25;5092784;28;20023;-72
2022/11/01 01:24:07;;;;;;;13.95;5.80;;;;;;;14.51;100.00;100782.31;5090630;28;20463;-73
2022/11/01 01:26:32;;;;;;;15.07;6.70;;;;;;;14.57;100.00;100796.97;5089784;28;20110;-72
2022/11/01 01:28:57;;;;;;;10.18;6.15;;;;;;;14.62;100.00;100792.41;5091766;28;20031;-73
2022/11/01 01:31:22;;;;;;;14.18;5.97;;;;;;;14.64;100.00;100785.31;5090628;28;20122;-73
2022/11/01 01:33:48;;;;;;;9.98;6.43;;;;;;;14.64;100.00;100788.78;5089765;28;20032;-73
2022/11/01 01:36:13;;;;;;;12.18;5.78;;;;;;;14.68;100.00;100779.00;5092397;28;20023;-73
2022/11/01 01:38:38;;;;;;;15.68;6.55;;;;;;;14.67;100.00;100790.44;5093047;28;20032;-73
2022/11/01 01:43:48;;;;;;;10.55;5.70;;;;;;;14.58;100.00;100783.78;5092762;28;20042;-73
2022/11/01 01:46:13;;;;;;;11.07;6.18;;;;;;;14.56;100.00;100780.38;5092624;28;20024;-73
2022/11/01 01:48:41;;;;;;;14.65;6.35;;;;;;;14.59;100.00;100782.88;5092632;28;20064;-73
2022/11/01 01:51:21;;;;;;;11.73;5.90;;;;;;;14.70;100.00;100779.81;5093137;28;20020;-73
2022/11/01 01:53:49;;;;;;;15.13;6.32;;;;;;;14.79;100.00;100775.97;5088158;28;20039;-73
2022/11/01 01:56:22;;;;;;;11.82;6.25;;;;;;;14.88;100.00;100781.69;5091870;28;20095;-73
2022/11/01 01:58:55;;;;;;;15.07;6.00;;;;;;;14.94;100.00;100773.53;5094125;28;20055;-73
2022/11/01 02:01:21;;;;;;;12.77;6.10;;;;;;;14.97;100.00;100772.53;5092774;28;20073;-73
2022/11/01 02:03:47;;;;;;;12.10;5.70;;;;;;;14.97;100.00;100778.63;5091996;28;20024;-73
2022/11/01 02:06:17;;;;;;;10.25;6.05;;;;;;;15.02;100.00;100777.59;5092919;28;20467;-73
2022/11/01 02:08:50;;;;;;;10.75;5.90;;;;;;;14.98;100.00;100769.88;5092692;28;20502;-73
2022/11/01 02:11:16;;;;;;;14.68;5.90;;;;;;;14.98;100.00;100782.13;5089563;28;20040;-73
2022/11/01 02:13:42;;;;;;;14.95;5.70;;;;;;;14.99;100.00;100775.97;5091089;28;20028;-74
2022/11/01 02:16:25;;;;;;;11.10;5.53;;;;;;;15.04;100.00;100775.75;5092241;28;20100;-73
2022/11/01 02:18:53;;;;;;;;;;;;;;;15.02;100.00;100786.34;5077965;28;20467;-73
2022/11/01 02:21:39;;;;;;;9.95;5.55;;;;;;;14.96;100.00;100774.31;5089342;28;19977;-73
2022/11/01 02:24:42;;;;;;;11.45;5.22;;;;;;;14.96;100.00;100778.72;5090984;28;20039;-73
2022/11/01 02:27:13;;;;;;;12.20;5.38;;;;;;;14.89;100.00;100777.28;5091402;28;20035;-73
2022/11/01 02:30:03;;;;;;;11.23;5.47;;;;;;;14.83;100.00;100782.78;5092822;28;20032;-73
2022/11/01 02:32:38;;;;;;;11.98;5.65;;;;;;;14.77;100.00;100786.50;5080304;28;20024;-73
2022/11/01 02:35:15;;;;;;;12.25;5.68;;;;;;;14.83;100.00;100785.41;5095918;28;20510;-73
2022/11/01 02:37:58;;;;;;;8.32;5.07;;;;;;;14.78;100.00;100782.97;5095731;28;20077;-73
2022/11/01 02:40:38;;;;;;;15.38;5.88;;;;;;;14.70;100.00;100791.16;5091676;28;20036;-73
2022/11/01 02:43:11;;;;;;;9.98;5.22;;;;;;;14.70;100.00;100788.53;5094818;28;20455;-73
2022/11/01 02:45:41;;;;;;;7.10;5.18;;;;;;;14.70;100.00;100799.03;5094572;28;20043;-73
2022/11/01 02:48:08;;;;;;;9.73;5.63;;;;;;;14.66;100.00;100796.59;5095385;28;20131;-73
2022/11/01 02:50:42;;;;;;;9.45;5.40;;;;;;;14.64;100.00;100804.53;5094421;28;20036;-73
2022/11/01 02:53:09;;;;;;;13.10;5.38;;;;;;;14.63;100.00;100804.59;5093967;28;20096;-73
2022/11/01 02:55:35;;;;;;;8.63;5.32;;;;;;;14.61;100.00;100801.16;5095392;28;20024;-73
2022/11/01 02:58:04;;;;;;;11.55;5.70;;;;;;;14.57;100.00;100804.84;5094323;28;20026;-73
2022/11/01 03:00:33;;;;;;;9.95;5.47;;;;;;;14.56;100.00;100806.63;5084845;28;20635;-73
2022/11/01 03:03:03;;;;;;;12.23;5.65;;;;;;;14.55;100.00;100812.78;5094164;28;20528;-73
2022/11/01 03:05:44;;;;;;;9.65;5.25;;;;;;;14.52;100.00;100823.41;5095039;28;20032;-73
2022/11/01 03:08:14;;;;;;;11.50;6.00;;;;;;;14.43;100.00;100821.97;5094725;28;20069;-73
2022/11/01 03:11:06;;;;;;;11.35;6.10;;;;;;;14.45;100.00;100821.88;5095743;28;20054;-73
2022/11/01 03:13:45;;;;;;;13.52;5.70;;;;;;;14.42;100.00;100832.50;5092636;28;20040;-73
2022/11/01 03:16:28;;;;;;;8.27;5.50;;;;;;;14.36;100.00;100831.00;5095322;28;20035;-73
2022/11/01 03:19:21;;;;;;;12.82;5.80;;;;;;;14.32;100.00;100839.03;5082902;28;20031;-73
2022/11/01 03:22:06;;;;;;;9.82;5.88;;;;;;;14.16;100.00;100834.38;5093667;28;20048;-73
2022/11/01 03:24:59;;;;;;;9.82;5.68;;;;;;;14.18;100.00;100844.81;5092502;28;20551;-73
2022/11/01 03:27:31;;;;;;;12.15;5.28;;;;;;;14.18;100.00;100866.63;5091911;28;20491;-73
2022/11/01 03:30:08;;;;;;;16.95;4.47;;;;;;;14.11;100.00;100853.81;5094198;28;20044;-73
2022/11/01 03:32:42;;;;;;;7.13;3.50;;;;;;;14.09;100.00;100856.47;5093733;28;20028;-73
2022/11/01 03:35:11;;;;;;;5.32;3.00;;;;;;;14.04;100.00;100859.28;5093961;28;20028;-73
2022/11/01 03:37:40;;;;;;;4.97;2.63;;;;;;;14.09;100.00;100873.97;5095632;28;20043;-73
2022/11/01 03:40:08;;;;;;;5.18;2.38;;;;;;;14.09;100.00;100876.59;5093388;28;20585;-73
2022/11/01 03:42:37;;;;;;;3.90;2.10;;;;;;;14.13;95.34;100893.94;5093587;28;20035;-73
2022/11/01 03:45:08;;;;;;;3.53;1.80;;;;;;;14.14;97.39;100891.25;5094567;28;20036;-73
2022/11/01 03:47:33;;;;;;;5.60;2.17;;;;;;;14.05;95.13;100874.09;5094902;28;20036;-73
2022/11/01 03:50:20;;;;;;;2.38;1.63;;;;;;;14.06;93.44;100898.56;5092301;28;20036;-73
2022/11/01 03:52:46;;;;;;;8.63;1.70;;;;;;;13.98;91.93;100895.34;5092304;28;20035;-73
2022/11/01 03:55:17;;;;;;;3.17;1.70;;;;;;;13.92;91.65;100917.41;5089919;28;20008;-73
2022/11/01 03:58:03;;;;;;;7.82;1.65;;;;;;;13.85;94.28;100922.91;5094011;28;20376;-73
2022/11/01 04:00:31;;;;;;;2.78;1.63;;;;;;;13.85;88.75;100921.16;5092453;28;20059;-73
2022/11/01 04:02:58;;;;;;;4.18;1.70;;;;;;;13.81;88.95;100936.13;5093650;28;20883;-73
2022/11/01 04:05:25;;;;;;;4.43;1.50;;;;;;;13.74;89.54;100939.03;5091911;28;20012;-73
2022/11/01 04:07:51;;;;;;;2.28;1.30;;;;;;;13.62;88.27;100944.69;5094821;28;20027;-73
2022/11/01 04:10:18;;;;;;;3.22;0.95;;;;;;;13.52;86.60;100952.00;5091837;28;20028;-73
2022/11/01 04:12:44;;;;;;;3.08;1.00;;;;;;;13.46;86.33;100955.69;5094610;28;20024;-73
2022/11/01 04:20:57;;;;;;;2.75;0.95;;;;;;;13.11;85.82;100965.53;5092071;28;20363;-73
2022/11/01 04:23:22;;;;;;;3.90;1.23;;;;;;;13.10;87.87;100982.13;5093479;28;20028;-73
2022/11/01 04:25:48;;;;;;;3.30;1.08;;;;;;;13.05;87.13;100981.44;5092134;28;20035;-73
2022/11/01 04:28:14;;;;;;;3.58;1.23;;;;;;;12.98;88.25;100979.03;5093653;28;20027;-73
2022/11/01 04:30:40;;;;;;;1.88;0.95;;;;;;;12.89;86.19;100991.50;5092886;28;20028;-73
2022/11/01 04:33:05;;;;;;;5.72;1.10;;;;;;;12.84;88.28;101003.84;5092090;28;20028;-73
2022/11/01 04:35:30;;;;;;;2.85;1.00;;;;;;;12.84;87.86;101014.31;5093792;28;20126;-73
2022/11/01 04:37:57;;;;;;;2.35;0.90;;;;;;;12.77;87.68;101012.81;5093707;28;20024;-73
2022/11/01 04:40:22;;;;;;;3.17;1.10;;;;;;;12.68;88.90;101023.53;5092712;28;20020;-73
2022/11/01 04:42:48;;;;;;;4.03;1.00;;;;;;;12.64;87.72;101033.22;5093346;28;20153;-73
2022/11/01 04:45:13;;;;;;;2.45;0.82;;;;;;;12.56;88.93;101023.91;5091866;28;20459;-73
2022/11/01 04:47:38;;;;;;;5.10;1.10;;;;;;;12.56;87.78;101039.59;5091289;28;20051;-73
2022/11/01 04:50:04;;;;;;;4.05;1.02;;;;;;;12.56;86.43;101045.69;5090944;28;20020;-73
2022/11/01 04:52:29;;;;;;;4.60;1.20;;;;;;;12.53;86.90;101056.22;5092533;28;20031;-73
2022/11/01 04:54:55;;;;;;;3.80;0.90;;;;;;;12.53;85.90;101063.22;5092262;28;20467;-72
2022/11/01 04:57:23;;;;;;;2.85;0.90;;;;;;;12.54;87.79;101075.38;5093705;28;20046;-73
2022/11/01 04:59:52;;;;;;;6.25;1.15;;;;;;;12.39;87.47;101056.63;5090411;28;20036;-73
2022/11/01 05:02:18;;;;;;;2.92;1.00;;;;;;;12.44;87.73;101071.31;5091565;28;20028;-73
2022/11/01 05:04:44;;;;;;;7.22;1.63;;;;;;;12.51;85.41;101091.16;5092265;28;20028;-73
2022/11/01 05:07:10;;;;;;;2.30;0.80;;;;;;;12.44;85.52;101092.22;5090639;28;20027;-73
2022/11/01 05:09:35;;;;;;;2.60;0.90;;;;;;;12.49;87.10;101106.03;5091947;28;20028;-73
2022/11/01 05:12:00;;;;;;;3.17;1.55;;;;;;;12.51;87.43;101104.22;5092594;28;20272;-72
2022/11/01 05:14:25;;;;;;;7.85;1.08;;;;;;;12.45;88.78;101109.63;5090426;28;20032;-73
2022/11/01 05:16:54;;;;;;;3.47;0.90;;;;;;;12.36;88.16;101116.84;5092803;28;20357;-74
2022/11/01 05:19:19;;;;;;;5.60;1.00;;;;;;;12.26;88.19;101102.28;5087704;28;20031;-73
2022/11/01 05:21:45;;;;;;;2.80;1.02;;;;;;;12.17;88.63;101113.84;5092210;28;20028;-73
2022/11/01 05:24:10;;;;;;;2.25;1.20;;;;;;;12.10;90.31;101116.66;5092896;28;20394;-73
2022/11/01 05:26:35;;;;;;;4.72;0.93;;;;;;;12.08;88.10;101123.66;5092468;28;20036;-72
2022/11/01 05:29:01;;;;;;;3.47;1.20;;;;;;;12.06;88.30;101115.00;5092168;28;20460;-73
2022/11/01 05:31:26;;;;;;;3.97;0.98;;;;;;;12.04;88.84;101122.03;5092263;28;20036;-73
2022/11/01 05:33:51;;;;;;;5.03;1.10;;;;;;;11.99;89.41;101126.50;5091576;28;20119;-73
2022/11/01 05:36:17;;;;;;;4.70;1.10;;;;;;;11.81;89.29;101106.88;5090501;28;20062;-73
2022/11/01 05:38:42;;;;;;;4.18;0.90;;;;;;;11.88;90.03;101132.00;5089715;28;20024;-73
2022/11/01 05:41:07;;;;;;;2.75;1.00;;;;;;;11.85;90.72;101132.91;5091892;28;20040;-73
2022/11/01 05:43:32;;;;;;;3.83;0.93;;;;;;;11.81;91.12;101143.47;5091022;28;20062;-73
2022/11/01 05:45:58;;;;;;;3.53;1.13;;;;;;;11.79;90.93;101137.41;5092495;28;20529;-72
2022/11/01 05:48:23;;;;;;;6.88;1.55;;;;;;;11.81;91.35;101136.47;5089371;28;20040;-73
2022/11/01 05:50:48;;;;;;;3.88;1.15;;;;;;;11.74;91.40;101142.75;5091548;28;20499;-72
2022/11/01 05:53:14;;;;;;;6.03;1.02;;;;;;;11.75;89.86;101151.44;5090381;28;20024;-73
2022/11/01 05:55:40;;;;;;;4.60;1.20;;;;;;;11.61;87.74;101141.31;5091130;28;20032;-73
2022/11/01 05:58:05;;;;;;;4.32;1.40;;;;;;;11.71;86.00;101168.94;5092949;28;20034;-73
2022/11/01 06:00:32;;;;;;;4.68;1.35;;;;;;;11.79;84.61;101160.91;5091254;28;20020;-73
2022/11/01 06:02:58;;;;;;;4.43;1.27;;;;;;;11.75;84.62;101154.91;5089245;28;20031;-73
2022/11/01 06:05:24;;;;;;;4.32;1.42;;;;;;;11.68;84.92;101151.56;5092138;28;20047;-73
2022/11/01 06:07:49;;;;;;;8.63;1.48;;;;;;;11.65;84.43;101158.63;5092065;28;20483;-73
2022/11/01 06:10:14;;;;;;;4.43;1.23;;;;;;;11.53;85.16;101149.31;5090495;28;20460;-73
2022/11/01 06:12:40;;;;;;;2.65;1.25;;;;;;;11.59;84.82;101172.66;5092904;28;20028;-73
2022/11/01 06:15:06;;;;;;;6.72;1.60;;;;;;;11.54;85.64;101186.72;5089209;28;20024;-73
2022/11/01 06:17:31;;;;;;;4.50;1.23;;;;;;;11.59;86.03;101192.69;5089571;28;20471;-73
2022/11/01 06:19:57;;;;;;;4.55;1.20;;;;;;;11.59;85.74;101195.31;5091533;28;20073;-73
2022/11/01 06:22:22;;;;;;;4.60;1.23;;;;;;;11.53;86.82;101195.44;5090800;28;20099;-73
2022/11/01 06:24:47;;;;;;;4.45;1.02;;;;;;;11.41;87.31;101192.22;5091099;28;20467;-73
2022/11/01 06:27:13;;;;;;;8.15;1.63;;;;;;;11.37;86.33;101192.31;5091510;28;20081;-73
2022/11/01 06:29:38;;;;;;;8.35;1.52;;;;;;;11.38;87.95;101212.28;5091510;28;20510;-73
2022/11/01 06:32:03;;;;;;;7.50;1.73;;;;;;;11.33;88.31;101208.91;5089487;28;20040;-73
2022/11/01 06:34:29;;;;;;;6.43;1.10;;;;;;;11.27;89.71;101204.69;5091205;28;20027;-73
2022/11/01 06:36:55;;;;;;;4.78;1.30;;;;;;;11.37;88.49;101218.41;5090122;28;20498;-73
2022/11/01 06:39:20;;;;;;;3.90;1.40;;;;;;;11.36;88.42;101222.78;5090728;28;20028;-73
2022/11/01 06:41:45;;;;;;;5.00;1.40;;;;;;;11.35;87.74;101221.06;5091464;28;20084;-73
2022/11/01 06:44:10;;;;;;;5.68;1.30;;;;;;;11.36;89.13;101222.78;5089972;28;20036;-73
2022/11/01 06:46:36;;;;;;;8.00;1.50;;;;;;;11.36;88.43;101229.75;5090876;28;20052;-72
2022/11/01 06:49:01;;;;;;;8.15;1.13;;;;;;;11.38;89.09;101231.44;5088083;28;20036;-72
2022/11/01 06:51:28;;;;;;;4.18;1.13;;;;;;;11.37;88.66;101232.31;5089428;28;20126;-73
2022/11/01 06:53:53;;;;;;;7.05;1.90;;;;;;;11.38;89.50;101247.09;5092220;28;20024;-73
2022/11/01 06:56:18;;;;;;;8.00;1.95;;;;;;;11.35;88.92;101249.78;5091923;28;20130;-73
2022/11/01 06:58:47;;;;;;;6.20;1.52;;;;;;;11.34;89.29;101247.19;5090496;28;20027;-73
2022/11/01 07:01:13;;;;;;;4.85;1.48;;;;;;;11.31;89.50;101252.47;5090328;28;20427;-73
2022/11/01 07:03:38;;;;;;;8.90;1.95;;;;;;;11.29;89.77;101254.25;5089463;28;20132;-72
2022/11/01 07:06:03;;;;;;;7.82;1.48;;;;;;;11.28;89.62;101252.50;5090983;28;20478;-72
2022/11/01 07:08:29;;;;;;;4.88;1.33;;;;;;;11.28;89.24;101263.84;5090682;28;20039;-72
2022/11/01 07:10:54;;;;;;;4.97;1.50;;;;;;;11.30;89.69;101263.81;5090995;28;20107;-72
2022/11/01 07:13:19;;;;;;;9.52;2.30;;;;;;;11.25;90.42;101269.13;5088707;28;20097;-72
2022/11/01 07:15:45;;;;;;;8.70;2.03;;;;;;;11.27;90.23;101276.91;5092270;28;20024;-73
2022/11/01 07:18:10;;;;;;;6.57;1.27;;;;;;;11.28;89.93;101292.56;5093926;28;20423;-73
2022/11/01 07:20:42;;;;;;;7.70;1.80;;;;;;;11.31;89.11;101294.22;5093471;28;20065;-72
2022/11/01 07:23:11;;;;;;;9.98;1.70;;;;;;;11.30;88.46;101298.59;5092729;28;20028;-73
2022/11/01 07:25:37;;;;;;;8.07;1.60;;;;;;;11.22;88.72;101287.44;5093231;28;20089;-73
2022/11/01 07:28:02;;;;;;;8.50;1.52;;;;;;;11.32;89.01;101307.25;5095008;28;20017;-73
2022/11/01 07:30:27;;;;;;;8.75;1.60;;;;;;;11.32;88.05;101307.25;5093224;28;20039;-73
2022/11/01 07:32:58;;;;;;;9.20;1.63;;;;;;;11.37;87.17;101321.06;5093600;28;20487;-73
2022/11/01 07:35:24;;;;;;;10.00;2.45;;;;;;;11.36;86.20;101319.34;5092847;28;20020;-73
2022/11/01 07:37:49;;;;;;;10.75;2.00;;;;;;;11.40;86.08;101320.16;5093426;28;20521;-72
2022/11/01 07:40:15;;;;;;;10.77;2.05;;;;;;;11.43;85.63;101331.41;5094995;28;20028;-72
2022/11/01 07:42:42;;;;;;;14.10;2.33;;;;;;;11.40;86.89;101326.22;5095113;28;20024;-73
2022/11/01 07:45:09;;;;;;;9.55;2.38;;;;;;;11.39;85.18;101321.06;5095450;28;20375;-72
2022/11/01 07:47:34;;;;;;;12.95;2.42;;;;;;;11.37;86.45;101321.06;5095665;28;20127;-72
2022/11/01 07:50:00;;;;;;;12.18;1.88;;;;;;;11.41;86.96;101325.38;5094662;28;20047;-72
2022/11/01 07:52:25;;;;;;;7.57;1.98;;;;;;;11.41;85.76;101332.31;5094957;28;20092;-72
2022/11/01 07:54:50;;;;;;;12.27;2.08;;;;;;;11.44;86.12;101343.56;5094479;28;20031;-72
2022/11/01 07:57:15;;;;;;;13.35;2.13;;;;;;;11.44;86.47;101343.56;5094752;28;20024;-73
2022/11/01 07:59:41;;;;;;;9.43;2.03;;;;;;;11.44;87.17;101348.81;5095390;28;20103;-72
2022/11/01 08:02:08;;;;;;;14.52;1.90;;;;;;;11.44;87.57;101346.19;5091795;28;20101;-72
2022/11/01 08:04:33;;;;;;;8.95;2.05;;;;;;;11.47;85.73;101351.31;5094713;28;20475;-73
2022/11/01 08:06:58;;;;;;;12.98;1.80;;;;;;;11.51;85.50;101351.28;5094932;28;20032;-73
2022/11/01 08:09:23;;;;;;;8.27;1.73;;;;;;;11.46;85.22;101352.22;5093951;28;20027;-73
2022/11/01 08:11:49;;;;;;;17.80;3.00;;;;;;;11.56;86.16;101365.97;5094732;28;20028;-73
2022/11/01 08:14:14;;;;;;;12.75;2.38;;;;;;;11.53;84.52;101355.56;5092608;28;20413;-73
2022/11/01 08:16:39;;;;;;;9.73;1.90;;;;;;;11.59;85.45;101367.66;5093663;28;20024;-73
2022/11/01 08:19:04;;;;;;;11.95;1.80;;;;;;;11.61;84.93;101371.97;5094796;28;20052;-73
2022/11/01 08:21:30;;;;;;;9.70;1.90;;;;;;;11.61;84.28;101371.13;5092260;28;20474;-72
2022/11/01 08:23:55;;;;;;;6.78;1.50;;;;;;;11.63;84.10;101379.75;5089849;28;20039;-72
2022/11/01 08:26:20;;;;;;;8.77;2.13;;;;;;;11.65;82.91;101376.25;5091670;28;20081;-72
2022/11/01 08:28:46;;;;;;;12.60;2.35;;;;;;;11.68;83.57;101373.56;5091903;28;20051;-73
2022/11/01 08:31:11;;;;;;;10.10;1.95;;;;;;;11.70;84.00;101386.59;5093297;28;20080;-72
2022/11/01 08:33:36;;;;;;;12.18;1.98;;;;;;;11.72;83.49;101393.50;5092312;28;20032;-72
2022/11/01 08:36:02;;;;;;;9.25;2.13;;;;;;;11.74;83.25;101383.03;5091627;28;20486;-73
2022/11/01 08:38:27;;;;;;;8.90;1.70;;;;;;;11.76;82.83;101389.09;5091789;28;20040;-72
2022/11/01 08:40:53;;;;;;;8.50;2.03;;;;;;;11.79;81.83;101391.63;5094033;28;20040;-72
2022/11/01 08:43:19;;;;;;;12.68;2.30;;;;;;;11.83;83.72;101395.91;5093727;28;20090;-72
2022/11/01 08:45:45;;;;;;;12.93;2.38;;;;;;;11.76;83.02;101385.63;5091748;28;20523;-72
2022/11/01 08:48:10;;;;;;;7.05;1.80;;;;;;;11.83;83.48;101388.06;5093560;28;20040;-73
2022/11/01 08:50:36;;;;;;;12.13;2.88;;;;;;;11.83;82.45;101389.81;5093227;28;20051;-73
2022/11/01 08:53:06;;;;;;;9.88;1.77;;;;;;;11.93;81.11;101392.28;5094871;28;20019;-72
2022/11/01 08:55:32;;;;;;;8.65;1.75;;;;;;;12.00;81.27;101403.47;5090933;28;20391;-73
2022/11/01 08:57:58;;;;;;;11.82;2.35;;;;;;;12.04;81.90;101406.88;5102157;28;20072;-73
2022/11/01 09:00:24;;;;;;;14.13;2.40;;;;;;;12.00;81.66;101398.22;5091869;28;20097;-73
2022/11/01 09:02:49;;;;;;;12.85;2.38;;;;;;;12.04;81.07;101396.41;5093435;28;20471;-73
2022/11/01 09:05:15;;;;;;;10.48;2.30;;;;;;;12.16;80.93;101414.44;5092205;28;20028;-73
2022/11/01 09:07:40;;;;;;;5.78;1.40;;;;;;;12.06;80.44;101389.38;5093892;28;20373;-73
2022/11/01 09:10:06;;;;;;;13.57;2.40;;;;;;;12.24;80.88;101424.75;5092977;28;20130;-73
2022/11/01 09:12:32;;;;;;;11.55;2.22;;;;;;;12.26;80.06;101418.59;5091291;28;20527;-73
2022/11/01 09:14:57;;;;;;;12.23;2.08;;;;;;;12.29;80.05;101418.50;5092687;28;20123;-72
2022/11/01 09:17:22;;;;;;;15.38;2.22;;;;;;;12.28;80.41;101415.94;5091509;28;20158;-73
2022/11/01 09:19:47;;;;;;;14.40;2.13;;;;;;;12.28;80.70;101426.41;5094778;28;20085;-73
2022/11/01 09:22:13;;;;;;;8.18;1.80;;;;;;;12.32;79.96;101426.28;5088853;28;20042;-73
2022/11/01 09:24:38;;;;;;;12.38;2.22;;;;;;;12.35;81.37;101433.22;5093040;28;20054;-73
2022/11/01 09:27:06;;;;;;;12.30;3.30;;;;;;;12.37;81.15;101431.44;5093216;28;20099;-73
2022/11/01 09:29:31;;;;;;;12.93;2.30;;;;;;;12.40;81.33;101436.59;5092987;28;20027;-73
2022/11/01 09:31:56;;;;;;;8.10;1.80;;;;;;;12.40;80.02;101424.38;5093167;28;20024;-73
2022/11/01 09:34:22;;;;;;;15.75;2.30;;;;;;;12.43;81.32;101435.69;5092633;28;20345;-73
2022/11/01 09:36:47;;;;;;;17.00;2.28;;;;;;;12.41;81.02;101422.63;5093267;28;20467;-73
2022/11/01 09:39:15;;;;;;;14.10;1.90;;;;;;;12.46;81.03;101444.31;5092546;28;20379;-73
2022/11/01 09:41:48;;;;;;;12.75;2.50;;;;;;;12.47;81.56;101456.50;5092470;28;20452;-73
2022/11/01 09:44:17;;;;;;;10.07;1.95;;;;;;;12.54;79.93;101465.06;5092894;28;20017;-73
2022/11/01 09:46:50;;;;;;;10.98;2.08;;;;;;;12.50;82.07;101459.03;5092592;28;20023;-73
2022/11/01 09:49:21;;;;;;;11.43;2.50;;;;;;;12.56;81.02;101476.38;5092279;28;20036;-73
2022/11/01 09:51:47;;;;;;;8.98;1.98;;;;;;;12.59;80.39;101481.53;5092807;28;20289;-73
2022/11/01 09:54:12;;;;;;;14.52;3.15;;;;;;;12.62;82.15;101468.34;5092685;28;20376;-73
2022/11/01 09:56:49;;;;;;;9.70;1.60;;;;;;;12.63;81.51;101472.72;5092276;28;20057;-73
2022/11/01 09:59:27;;;;;;;12.18;2.22;;;;;;;12.79;80.84;101471.47;5092785;28;20055;-73
2022/11/01 10:02:25;;;;;;;14.27;2.72;;;;;;;12.77;80.88;101488.09;5092251;28;20028;-73
2022/11/01 10:04:58;;;;;;;13.48;2.30;;;;;;;12.80;78.90;101482.81;5093054;28;20035;-73
2022/11/01 10:07:43;;;;;;;9.93;2.00;;;;;;;12.80;80.76;101488.88;5092392;28;20043;-73
2022/11/01 10:10:30;;;;;;;12.95;2.45;;;;;;;12.79;81.42;101492.41;5092031;28;20540;-73
2022/11/01 10:13:38;;;;;;;8.38;1.83;;;;;;;12.81;81.28;101505.44;5093038;28;20040;-73
2022/11/01 10:16:29;;;;;;;10.18;2.25;;;;;;;12.85;80.95;101502.75;5090023;28;20475;-73
2022/11/01 10:19:03;;;;;;;10.05;1.85;;;;;;;12.84;80.35;101511.47;5092455;28;20039;-73
2022/11/01 10:21:41;;;;;;;9.98;2.15;;;;;;;12.78;81.39;101497.66;5092079;28;20103;-73
2022/11/01 10:24:27;;;;;;;11.80;2.42;;;;;;;12.82;81.21;101513.28;5092101;28;20016;-73
2022/11/01 10:26:58;;;;;;;14.02;2.33;;;;;;;12.83;82.01;101507.13;5092663;28;20028;-73
2022/11/01 10:29:34;;;;;;;15.52;2.75;;;;;;;12.89;81.61;101506.16;5091711;28;20042;-73
2022/11/01 10:32:02;;;;;;;11.48;2.20;;;;;;;12.93;80.38;101506.94;5092454;28;20487;-73
2022/11/01 10:34:33;;;;;;;11.65;2.67;;;;;;;13.00;79.53;101501.53;5092224;28;20052;-73
2022/11/01 10:37:36;;;;;;;13.48;2.30;;;;;;;13.04;79.70;101503.16;5092168;28;20012;-73
2022/11/01 10:40:09;;;;;;;13.43;2.28;;;;;;;13.06;78.61;101511.00;5092566;28;20052;-73
2022/11/01 10:42:34;;;;;;;9.47;2.33;;;;;;;13.09;79.35;101508.31;5092214;28;20471;-73
2022/11/01 10:45:03;;;;;;;9.93;2.45;;;;;;;13.14;79.64;101524.75;5091841;28;20019;-73
2022/11/01 10:47:28;;;;;;;9.63;1.90;;;;;;;13.16;78.53;101495.94;5091988;28;20093;-73
2022/11/01 10:50:06;;;;;;;10.45;2.00;;;;;;;13.24;80.09;101512.31;5091975;28;20020;-73
2022/11/01 10:52:42;;;;;;;11.88;2.00;;;;;;;13.29;78.98;101511.34;5095906;28;20028;-73
2022/11/01 10:55:12;;;;;;;9.57;1.85;;;;;;;13.33;77.77;101509.50;5096417;28;20036;-73
2022/11/01 10:57:44;;;;;;;9.80;1.90;;;;;;;13.37;77.68;101510.28;5095733;28;20027;-73
2022/11/01 11:00:16;;;;;;;9.25;2.00;;;;;;;13.49;77.25;101505.63;5095867;28;20127;-73
2022/11/01 11:02:45;;;;;;;10.77;1.83;;;;;;;13.53;76.73;101511.63;5096065;28;20020;-73
2022/11/01 11:05:14;;;;;;;8.80;1.88;;;;;;;13.54;77.38;101508.13;5095432;28;20031;-73
2022/11/01 11:07:41;;;;;;;11.80;1.98;;;;;;;13.59;76.73;101509.72;5096141;28;20028;-73
2022/11/01 11:10:28;;;;;;;9.52;2.17;;;;;;;13.66;77.50;101512.19;5095796;28;20058;-73
2022/11/01 11:13:01;;;;;;;11.82;2.50;;;;;;;13.76;76.80;101503.19;5084141;28;20028;-73
2022/11/01 11:15:40;;;;;;;11.32;3.08;;;;;;;13.87;76.16;101497.69;5095837;28;20089;-73
2022/11/01 11:18:15;;;;;;;7.28;1.77;;;;;;;13.92;77.16;101501.03;5095843;28;20031;-73
2022/11/01 11:20:42;;;;;;;11.32;2.05;;;;;;;13.96;75.30;101502.66;5095255;28;20036;-73
2022/11/01 11:23:11;;;;;;;12.68;2.00;;;;;;;14.00;75.87;101506.94;5095847;28;20074;-73
2022/11/01 11:25:37;;;;;;;8.68;1.90;;;;;;;14.08;75.56;101502.31;5093894;28;20048;-73
2022/11/01 11:28:03;;;;;;;11.77;1.83;;;;;;;14.20;74.25;101494.13;5095660;28;20105;-73
2022/11/01 11:30:32;;;;;;;11.93;1.63;;;;;;;14.29;73.25;101491.25;5095439;28;20534;-74
2022/11/01 11:32:58;;;;;;;11.55;2.15;;;;;;;14.35;75.82;101490.19;5094470;28;20047;-78
2022/11/01 11:35:27;;;;;;;9.65;2.25;;;;;;;14.52;72.96;101500.25;5095329;28;20097;-73